createdAt,value
2022-08-22T00:00:24.468Z,18.38
2022-08-22T00:02:49.121Z,21.02
2022-08-22T00:02:56.362Z,20.86
2022-08-22T00:03:09.861Z,19.61
2022-08-22T00:03:11.733Z,22.22
2022-08-22T00:03:12.379Z,19.78
2022-08-22T00:03:15.512Z,18.59
2022-08-22T00:03:27.456Z,18.31
2022-08-22T00:06:11.444Z,18.36
2022-08-22T00:08:51.408Z,18.27
2022-08-22T00:11:29.356Z,18.28
2022-08-22T00:14:07.287Z,18.34
2022-08-22T00:16:48.235Z,18.31
2022-08-22T00:19:28.377Z,18.04
2022-08-22T00:22:06.228Z,18.02
2022-08-22T00:24:46.400Z,17.65
2022-08-22T00:27:22.370Z,17.69
2022-08-22T00:29:56.137Z,17.46
2022-08-22T00:32:33.164Z,17.74
2022-08-22T00:35:14.883Z,17.88
2022-08-22T00:37:54.200Z,17.97
2022-08-22T00:40:50.068Z,17.89
2022-08-22T00:44:00.888Z,17.90
2022-08-22T00:47:09.320Z,17.92
2022-08-22T00:50:06.436Z,17.94
2022-08-22T00:53:04.559Z,17.99
2022-08-22T00:55:59.690Z,18.00
2022-08-22T00:58:53.501Z,17.68
2022-08-22T01:01:33.579Z,17.68
2022-08-22T01:04:44.480Z,17.64
2022-08-22T01:07:38.300Z,17.61
2022-08-22T01:10:30.868Z,17.66
2022-08-22T01:13:19.873Z,17.51
2022-08-22T01:15:51.849Z,17.64
2022-08-22T01:18:48.693Z,17.62
2022-08-22T01:21:55.804Z,17.25
2022-08-22T01:25:26.145Z,17.10
2022-08-22T01:28:40.739Z,16.90
2022-08-22T01:31:53.263Z,16.72
2022-08-22T01:35:08.095Z,16.68
2022-08-22T01:38:06.259Z,16.99
2022-08-22T01:41:20.204Z,16.90
2022-08-22T01:44:34.165Z,16.88
2022-08-22T01:47:12.389Z,16.72
2022-08-22T01:49:50.072Z,16.82
2022-08-22T01:52:33.353Z,16.98
2022-08-22T01:55:09.207Z,17.04
2022-08-22T01:57:53.047Z,17.11
2022-08-22T02:00:34.766Z,17.07
2022-08-22T02:03:26.566Z,17.10
2022-08-22T02:06:03.953Z,17.14
2022-08-22T02:08:44.928Z,17.17
2022-08-22T02:11:48.019Z,17.07
2022-08-22T02:14:24.332Z,17.07
2022-08-22T02:16:59.321Z,17.12
2022-08-22T02:19:39.812Z,17.18
2022-08-22T02:22:32.232Z,17.21
2022-08-22T02:25:09.777Z,17.24
2022-08-22T02:27:51.253Z,17.12
2022-08-22T02:30:24.542Z,17.14
2022-08-22T02:33:09.516Z,17.04
2022-08-22T02:35:47.957Z,17.11
2022-08-22T02:38:30.164Z,17.12
2022-08-22T02:41:17.542Z,16.92
2022-08-22T02:43:52.064Z,16.68
2022-08-22T02:46:30.678Z,16.59
2022-08-22T02:49:09.472Z,16.62
2022-08-22T02:51:50.337Z,16.47
2022-08-22T02:54:27.726Z,16.48
2022-08-22T02:57:04.102Z,16.60
2022-08-22T02:59:56.880Z,16.57
2022-08-22T03:02:36.564Z,16.50
2022-08-22T03:05:24.522Z,16.44
2022-08-22T03:08:24.005Z,16.53
2022-08-22T03:11:12.895Z,16.63
2022-08-22T03:13:58.853Z,16.71
2022-08-22T03:16:36.945Z,16.85
2022-08-22T03:19:18.887Z,17.01
2022-08-22T03:21:57.401Z,16.96
2022-08-22T03:24:33.056Z,16.95
2022-08-22T03:27:08.899Z,16.82
2022-08-22T03:29:41.801Z,16.55
2022-08-22T03:32:19.081Z,16.32
2022-08-22T03:35:03.684Z,16.22
2022-08-22T03:37:41.954Z,16.28
2022-08-22T03:40:31.752Z,16.37
2022-08-22T03:43:34.715Z,16.47
2022-08-22T03:46:53.168Z,16.78
2022-08-22T03:50:07.883Z,16.88
2022-08-22T03:53:19.094Z,16.94
2022-08-22T03:56:44.888Z,16.84
2022-08-22T03:59:52.544Z,16.88
2022-08-22T04:02:52.273Z,16.93
2022-08-22T04:06:00.427Z,16.74
2022-08-22T04:09:21.011Z,16.49
2022-08-22T04:12:18.701Z,16.51
2022-08-22T04:15:35.859Z,16.38
2022-08-22T04:18:33.432Z,16.29
2022-08-22T04:21:43.721Z,16.21
2022-08-22T04:24:37.248Z,16.29
2022-08-22T04:27:17.565Z,16.19
2022-08-22T04:29:53.280Z,16.29
2022-08-22T04:32:32.125Z,16.36
2022-08-22T04:35:09.019Z,16.45
2022-08-22T04:37:48.115Z,16.47
2022-08-22T04:40:25.430Z,16.26
2022-08-22T04:43:03.629Z,16.07
2022-08-22T04:45:37.112Z,16.07
2022-08-22T04:48:13.661Z,15.89
2022-08-22T04:50:58.995Z,16.06
2022-08-22T04:53:55.677Z,16.07
2022-08-22T04:56:38.552Z,16.08
2022-08-22T04:59:16.437Z,16.08
2022-08-22T05:01:47.983Z,16.23
2022-08-22T05:04:22.691Z,16.28
2022-08-22T05:06:56.029Z,16.30
2022-08-22T05:09:29.796Z,16.36
2022-08-22T05:12:09.064Z,16.46
2022-08-22T05:14:43.202Z,16.67
2022-08-22T05:17:17.182Z,16.60
2022-08-22T05:19:52.513Z,16.39
2022-08-22T05:22:41.240Z,16.62
2022-08-22T05:25:15.119Z,16.54
2022-08-22T05:27:56.633Z,16.72
2022-08-22T05:30:30.294Z,16.61
2022-08-22T05:33:10.608Z,16.90
2022-08-22T05:35:48.587Z,16.99
2022-08-22T05:38:24.935Z,16.91
2022-08-22T05:41:00.795Z,16.62
2022-08-22T05:43:30.749Z,16.58
2022-08-22T05:46:00.102Z,16.56
2022-08-22T05:48:39.800Z,16.71
2022-08-22T05:51:18.798Z,17.01
2022-08-22T05:53:53.502Z,17.14
2022-08-22T05:56:34.296Z,17.18
2022-08-22T05:59:14.682Z,17.05
2022-08-22T06:01:55.270Z,17.10
2022-08-22T06:04:32.677Z,17.26
2022-08-22T06:07:07.897Z,17.36
2022-08-22T06:10:02.537Z,17.49
2022-08-22T06:12:37.777Z,17.60
2022-08-22T06:15:16.171Z,17.74
2022-08-22T06:17:52.814Z,17.78
2022-08-22T06:20:26.481Z,17.92
2022-08-22T06:23:02.861Z,17.99
2022-08-22T06:25:34.599Z,18.03
2022-08-22T06:28:09.719Z,18.12
2022-08-22T06:30:41.126Z,17.88
2022-08-22T06:33:17.369Z,17.63
2022-08-22T06:36:08.002Z,17.93
2022-08-22T06:39:00.256Z,17.83
2022-08-22T06:41:33.149Z,18.21
2022-08-22T06:44:03.443Z,18.36
2022-08-22T06:46:38.686Z,18.70
2022-08-22T06:49:09.624Z,18.62
2022-08-22T06:51:40.119Z,18.45
2022-08-22T06:54:17.103Z,18.47
2022-08-22T06:56:50.057Z,19.00
2022-08-22T06:59:24.271Z,19.23
2022-08-22T07:02:00.233Z,19.09
2022-08-22T07:04:29.029Z,19.30
2022-08-22T07:07:01.454Z,19.34
2022-08-22T07:09:32.650Z,19.75
2022-08-22T07:12:12.725Z,19.94
2022-08-22T07:14:44.754Z,20.15
2022-08-22T07:17:21.789Z,20.51
2022-08-22T07:20:00.271Z,20.36
2022-08-22T07:22:32.916Z,20.53
2022-08-22T07:25:08.863Z,20.86
2022-08-22T07:28:03.859Z,20.41
2022-08-22T07:30:49.403Z,20.89
2022-08-22T07:33:42.159Z,21.13
2022-08-22T07:36:31.838Z,21.20
2022-08-22T07:39:20.290Z,21.22
2022-08-22T07:42:11.539Z,20.93
2022-08-22T07:45:00.429Z,20.51
2022-08-22T07:47:50.192Z,20.83
2022-08-22T07:50:28.077Z,20.98
2022-08-22T07:53:05.159Z,20.65
2022-08-22T07:55:34.313Z,21.06
2022-08-22T07:58:15.300Z,20.96
2022-08-22T08:00:47.455Z,20.88
2022-08-22T08:03:16.248Z,21.11
2022-08-22T08:05:46.769Z,20.91
2022-08-22T08:08:27.703Z,21.04
2022-08-22T08:10:59.172Z,21.22
2022-08-22T08:13:32.765Z,20.93
2022-08-22T08:16:02.441Z,21.25
2022-08-22T08:18:35.242Z,21.15
2022-08-22T08:21:10.621Z,21.16
2022-08-22T08:23:47.303Z,21.27
2022-08-22T08:26:22.316Z,21.31
2022-08-22T08:28:52.836Z,21.40
2022-08-22T08:31:28.427Z,21.25
2022-08-22T08:34:05.308Z,21.52
2022-08-22T08:36:42.962Z,21.62
2022-08-22T08:39:24.168Z,21.99
2022-08-22T08:42:55.689Z,22.20
2022-08-22T08:45:42.592Z,22.53
2022-08-22T08:49:09.499Z,22.63
2022-08-22T08:52:27.244Z,22.29
2022-08-22T08:55:15.926Z,22.51
2022-08-22T08:58:10.232Z,22.50
2022-08-22T09:01:03.233Z,22.42
2022-08-22T09:04:27.211Z,22.43
2022-08-22T09:07:25.342Z,22.39
2022-08-22T09:10:18.831Z,22.41
2022-08-22T09:13:12.186Z,22.63
2022-08-22T09:16:08.409Z,22.96
2022-08-22T09:19:23.210Z,23.16
2022-08-22T09:22:50.641Z,22.91
2022-08-22T09:25:38.402Z,23.31
2022-08-22T09:28:17.522Z,23.44
2022-08-22T09:31:22.336Z,23.67
2022-08-22T09:34:07.181Z,23.62
2022-08-22T09:36:55.372Z,24.08
2022-08-22T09:39:35.560Z,24.01
2022-08-22T09:42:25.209Z,23.44
2022-08-22T09:45:34.500Z,23.53
2022-08-22T09:48:14.468Z,23.88
2022-08-22T09:50:53.345Z,24.40
2022-08-22T09:53:50.769Z,24.74
2022-08-22T09:56:29.664Z,24.55
2022-08-22T09:59:09.874Z,24.95
2022-08-22T10:01:50.870Z,24.83
2022-08-22T10:04:47.907Z,25.08
2022-08-22T10:07:53.170Z,24.89
2022-08-22T10:10:40.895Z,25.02
2022-08-22T10:13:23.717Z,25.16
2022-08-22T10:16:02.702Z,24.84
2022-08-22T10:18:53.927Z,25.39
2022-08-22T10:21:36.262Z,25.26
2022-08-22T10:24:25.586Z,25.44
2022-08-22T10:26:58.113Z,25.65
2022-08-22T10:29:56.900Z,25.66
2022-08-22T10:32:37.127Z,25.28
2022-08-22T10:35:22.062Z,25.63
2022-08-22T10:37:59.247Z,26.02
2022-08-22T10:40:33.365Z,25.98
2022-08-22T10:43:12.893Z,25.41
2022-08-22T10:45:46.177Z,25.49
2022-08-22T10:48:35.111Z,25.80
2022-08-22T10:51:23.378Z,25.78
2022-08-22T10:54:40.719Z,26.34
2022-08-22T10:57:30.120Z,26.40
2022-08-22T11:00:11.511Z,26.29
2022-08-22T11:02:53.540Z,26.35
2022-08-22T11:05:33.866Z,25.96
2022-08-22T11:08:25.506Z,25.09
2022-08-22T11:11:19.326Z,26.17
2022-08-22T11:14:27.205Z,25.94
2022-08-22T11:17:32.510Z,26.39
2022-08-22T11:20:21.341Z,26.44
2022-08-22T11:23:16.492Z,27.24
2022-08-22T11:25:58.423Z,27.51
2022-08-22T11:29:02.867Z,27.94
2022-08-22T11:32:00.448Z,28.19
2022-08-22T11:34:56.856Z,28.26
2022-08-22T11:37:48.678Z,27.14
2022-08-22T11:40:33.725Z,27.35
2022-08-22T11:43:26.081Z,26.65
2022-08-22T11:46:01.996Z,27.06
2022-08-22T11:48:47.417Z,26.73
2022-08-22T11:51:36.111Z,27.18
2022-08-22T11:54:15.336Z,27.13
2022-08-22T11:56:53.753Z,27.07
2022-08-22T11:59:31.073Z,27.09
2022-08-22T12:02:05.035Z,28.13
2022-08-22T12:04:44.215Z,27.31
2022-08-22T12:07:16.880Z,27.80
2022-08-22T12:09:55.045Z,28.37
2022-08-22T12:12:55.266Z,27.61
2022-08-22T12:15:33.462Z,27.41
2022-08-22T12:18:43.826Z,27.32
2022-08-22T12:22:00.324Z,27.43
2022-08-22T12:24:46.190Z,27.42
2022-08-22T12:27:50.922Z,27.96
2022-08-22T12:30:35.136Z,27.97
2022-08-22T12:33:39.943Z,27.47
2022-08-22T12:36:27.323Z,27.54
2022-08-22T12:39:44.300Z,28.49
2022-08-22T12:42:38.819Z,29.16
2022-08-22T12:45:28.564Z,28.08
2022-08-22T12:48:15.729Z,27.52
2022-08-22T12:50:53.571Z,26.98
2022-08-22T12:54:08.685Z,27.30
2022-08-22T12:56:47.700Z,27.83
2022-08-22T12:59:25.930Z,27.84
2022-08-22T13:01:58.371Z,27.92
2022-08-22T13:04:35.540Z,28.11
2022-08-22T13:07:11.459Z,27.84
2022-08-22T13:09:43.238Z,27.47
2022-08-22T13:12:21.253Z,27.94
2022-08-22T13:14:56.201Z,27.77
2022-08-22T13:17:27.908Z,27.25
2022-08-22T13:20:04.342Z,27.99
2022-08-22T13:22:36.888Z,27.74
2022-08-22T13:25:16.478Z,27.72
2022-08-22T13:27:59.349Z,27.66
2022-08-22T13:30:34.603Z,27.65
2022-08-22T13:33:11.831Z,27.63
2022-08-22T13:35:52.268Z,27.52
2022-08-22T13:38:26.611Z,28.16
2022-08-22T13:40:58.169Z,27.88
2022-08-22T13:43:32.473Z,27.62
2022-08-22T13:46:05.765Z,28.43
2022-08-22T13:48:51.837Z,28.58
2022-08-22T13:51:32.213Z,29.05
2022-08-22T13:54:21.612Z,29.46
2022-08-22T13:57:01.842Z,29.48
2022-08-22T13:59:51.683Z,29.11
2022-08-22T14:02:43.533Z,29.24
2022-08-22T14:05:22.091Z,28.68
2022-08-22T14:08:12.912Z,28.23
2022-08-22T14:10:52.205Z,27.71
2022-08-22T14:13:50.518Z,27.00
2022-08-22T14:16:27.105Z,27.93
2022-08-22T14:19:05.974Z,27.42
2022-08-22T14:21:43.696Z,27.74
2022-08-22T14:24:25.540Z,28.02
2022-08-22T14:27:05.072Z,27.77
2022-08-22T14:29:50.414Z,28.70
2022-08-22T14:32:41.825Z,29.24
2022-08-22T14:35:23.178Z,29.08
2022-08-22T14:38:21.553Z,27.97
2022-08-22T14:41:05.406Z,28.13
2022-08-22T14:43:49.868Z,28.40
2022-08-22T14:46:26.714Z,28.37
2022-08-22T14:49:38.254Z,28.47
2022-08-22T14:52:19.554Z,28.93
2022-08-22T14:54:51.042Z,28.86
2022-08-22T14:57:20.862Z,29.07
2022-08-22T14:59:53.510Z,28.68
2022-08-22T15:02:29.611Z,29.09
2022-08-22T15:05:02.258Z,28.49
2022-08-22T15:07:36.527Z,28.52
2022-08-22T15:10:12.045Z,28.63
2022-08-22T15:12:48.380Z,28.64
2022-08-22T15:15:33.311Z,28.44
2022-08-22T15:18:33.977Z,28.21
2022-08-22T15:21:08.660Z,28.37
2022-08-22T15:23:45.164Z,27.73
2022-08-22T15:26:26.875Z,27.79
2022-08-22T15:29:09.626Z,27.26
2022-08-22T15:31:43.420Z,27.10
2022-08-22T15:34:24.458Z,27.05
2022-08-22T15:37:08.478Z,27.14
2022-08-22T15:40:12.111Z,27.21
2022-08-22T15:42:46.233Z,27.34
2022-08-22T15:45:34.825Z,27.31
2022-08-22T15:48:13.445Z,27.27
2022-08-22T15:50:58.483Z,27.17
2022-08-22T15:53:33.710Z,27.11
2022-08-22T15:56:31.868Z,27.22
2022-08-22T15:59:30.432Z,27.03
2022-08-22T16:02:29.098Z,27.28
2022-08-22T16:05:24.383Z,27.11
2022-08-22T16:08:05.106Z,27.16
2022-08-22T16:10:39.420Z,27.40
2022-08-22T16:13:33.791Z,27.71
2022-08-22T16:16:09.258Z,27.48
2022-08-22T16:19:19.057Z,27.88
2022-08-22T16:22:14.925Z,28.32
2022-08-22T16:25:17.413Z,28.50
2022-08-22T16:27:59.816Z,28.75
2022-08-22T16:30:40.667Z,28.48
2022-08-22T16:33:18.522Z,27.92
2022-08-22T16:36:45.562Z,28.02
2022-08-22T16:39:38.172Z,27.94
2022-08-22T16:42:28.801Z,27.63
2022-08-22T16:45:16.802Z,27.39
2022-08-22T16:47:52.675Z,27.51
2022-08-22T16:50:35.219Z,27.49
2022-08-22T16:53:33.509Z,27.16
2022-08-22T16:56:31.023Z,27.40
2022-08-22T16:59:38.583Z,27.03
2022-08-22T17:02:54.696Z,26.99
2022-08-22T17:05:48.559Z,27.00
2022-08-22T17:08:38.410Z,26.76
2022-08-22T17:11:24.411Z,26.82
2022-08-22T17:14:18.672Z,26.65
2022-08-22T17:17:02.738Z,26.54
2022-08-22T17:19:51.115Z,26.56
2022-08-22T17:22:32.684Z,26.55
2022-08-22T17:25:23.156Z,26.73
2022-08-22T17:28:04.363Z,26.88
2022-08-22T17:30:48.209Z,26.29
2022-08-22T17:33:35.271Z,26.50
2022-08-22T17:36:26.725Z,26.62
2022-08-22T17:39:13.660Z,26.50
2022-08-22T17:41:52.701Z,26.44
2022-08-22T17:44:30.746Z,26.49
2022-08-22T17:47:09.981Z,26.59
2022-08-22T17:49:55.149Z,26.60
2022-08-22T17:52:35.897Z,26.58
2022-08-22T17:55:14.484Z,26.57
2022-08-22T17:57:53.373Z,26.32
2022-08-22T18:00:30.755Z,26.25
2022-08-22T18:03:09.094Z,26.25
2022-08-22T18:05:48.359Z,26.43
2022-08-22T18:11:24.162Z,26.66
2022-08-22T18:13:59.167Z,26.70
2022-08-22T18:16:44.617Z,26.70
2022-08-22T18:19:39.798Z,26.72
2022-08-22T18:22:19.128Z,26.58
2022-08-22T18:24:55.076Z,26.49
2022-08-22T18:27:34.560Z,26.49
2022-08-22T18:30:19.789Z,26.39
2022-08-22T18:32:59.525Z,25.97
2022-08-22T18:35:40.907Z,25.73
2022-08-22T18:38:21.530Z,25.64
2022-08-22T18:40:55.896Z,25.50
2022-08-22T18:43:38.780Z,25.32
2022-08-22T18:46:39.761Z,25.32
2022-08-22T18:49:33.848Z,25.32
2022-08-22T18:52:36.315Z,25.32
2022-08-22T18:55:32.552Z,25.21
2022-08-22T18:58:34.193Z,25.15
2022-08-22T19:01:31.062Z,25.02
2022-08-22T19:04:32.999Z,24.90
2022-08-22T19:07:55.488Z,24.62
2022-08-22T19:10:54.443Z,24.55
2022-08-22T19:13:48.621Z,24.52
2022-08-22T19:16:54.892Z,24.48
2022-08-22T19:19:52.899Z,24.48
2022-08-22T19:22:29.916Z,24.39
2022-08-22T19:25:26.024Z,24.23
2022-08-22T19:28:26.637Z,24.23
2022-08-22T19:31:23.611Z,24.08
2022-08-22T19:34:14.471Z,23.78
2022-08-22T19:36:45.549Z,23.89
2022-08-22T19:39:51.053Z,23.90
2022-08-22T19:42:49.920Z,23.28
2022-08-22T19:45:28.954Z,23.40
2022-08-22T19:48:02.100Z,23.55
2022-08-22T19:50:37.407Z,23.27
2022-08-22T19:53:26.232Z,23.16
2022-08-22T19:56:19.173Z,23.03
2022-08-22T19:59:12.760Z,23.08
2022-08-22T20:01:56.193Z,23.03
2022-08-22T20:04:52.877Z,23.02
2022-08-22T20:07:33.974Z,22.88
2022-08-22T20:10:21.192Z,22.90
2022-08-22T20:13:07.662Z,22.87
2022-08-22T20:16:17.445Z,22.88
2022-08-22T20:19:19.548Z,22.90
2022-08-22T20:21:58.069Z,22.78
2022-08-22T20:24:40.526Z,22.52
2022-08-22T20:27:15.512Z,22.43
2022-08-22T20:29:52.525Z,22.07
2022-08-22T20:32:26.107Z,22.25
2022-08-22T20:35:01.389Z,22.12
2022-08-22T20:38:03.302Z,21.49
2022-08-22T20:40:55.324Z,21.37
2022-08-22T20:43:35.159Z,21.54
2022-08-22T20:46:24.130Z,21.88
2022-08-22T20:48:57.304Z,21.95
2022-08-22T20:51:31.582Z,21.87
2022-08-22T20:54:02.704Z,22.00
2022-08-22T20:56:53.329Z,22.15
2022-08-22T20:59:37.904Z,22.13
2022-08-22T21:02:14.549Z,22.19
2022-08-22T21:04:53.217Z,22.33
2022-08-22T21:07:25.728Z,22.32
2022-08-22T21:10:22.994Z,22.09
2022-08-22T21:13:11.980Z,22.08
2022-08-22T21:15:44.149Z,22.11
2022-08-22T21:18:15.334Z,22.00
2022-08-22T21:20:45.601Z,22.07
2022-08-22T21:23:16.995Z,22.13
2022-08-22T21:25:58.379Z,21.89
2022-08-22T21:28:35.177Z,21.12
2022-08-22T21:31:13.555Z,21.37
2022-08-22T21:33:45.585Z,21.32
2022-08-22T21:36:18.941Z,21.11
2022-08-22T21:38:52.241Z,21.16
2022-08-22T21:41:31.978Z,21.13
2022-08-22T21:44:20.102Z,21.33
2022-08-22T21:46:48.793Z,21.54
2022-08-22T21:49:23.500Z,21.60
2022-08-22T21:51:54.072Z,21.54
2022-08-22T21:54:40.671Z,21.83
2022-08-22T21:57:38.640Z,21.69
2022-08-22T22:00:14.293Z,21.15
2022-08-22T22:02:44.012Z,21.18
2022-08-22T22:05:15.876Z,20.38
2022-08-22T22:07:48.500Z,20.85
2022-08-22T22:10:20.512Z,20.76
2022-08-22T22:12:51.859Z,20.83
2022-08-22T22:15:25.244Z,20.99
2022-08-22T22:17:55.046Z,20.93
2022-08-22T22:20:27.603Z,21.00
2022-08-22T22:22:57.611Z,21.05
2022-08-22T22:25:39.801Z,21.06
2022-08-22T22:28:14.584Z,21.00
2022-08-22T22:30:44.989Z,21.02
2022-08-22T22:33:13.466Z,21.04
2022-08-22T22:35:42.445Z,20.88
2022-08-22T22:38:13.100Z,20.77
2022-08-22T22:40:42.963Z,20.14
2022-08-22T22:43:12.635Z,20.53
2022-08-22T22:45:41.306Z,20.77
2022-08-22T22:48:09.986Z,20.60
2022-08-22T22:50:40.931Z,20.63
2022-08-22T22:53:09.770Z,20.79
2022-08-22T22:55:41.495Z,20.81
2022-08-22T22:58:10.355Z,20.65
2022-08-22T23:00:39.167Z,20.19
2022-08-22T23:03:07.745Z,19.85
2022-08-22T23:05:37.157Z,20.16
2022-08-22T23:08:05.793Z,19.85
2022-08-22T23:10:34.542Z,19.97
2022-08-22T23:13:06.924Z,19.95
2022-08-22T23:15:35.627Z,19.45
2022-08-22T23:18:04.454Z,19.77
2022-08-22T23:20:33.156Z,19.61
2022-08-22T23:23:01.526Z,19.63
2022-08-22T23:25:30.139Z,19.82
2022-08-22T23:27:58.434Z,19.66
2022-08-22T23:30:28.184Z,19.85
2022-08-22T23:32:57.017Z,19.87
2022-08-22T23:35:25.615Z,19.81
2022-08-22T23:37:53.932Z,19.79
2022-08-22T23:40:22.507Z,19.75
2022-08-22T23:42:51.069Z,19.76
2022-08-22T23:45:21.494Z,19.83
2022-08-22T23:47:51.529Z,19.73
2022-08-22T23:50:20.636Z,19.75
2022-08-22T23:52:49.218Z,19.48
2022-08-22T23:55:18.193Z,19.16
2022-08-22T23:57:46.739Z,19.15
